Time,TemperatureF,DewpointF,PressureIn,WindDirection,WindDirectionDegrees,WindSpeedMPH,WindSpeedGustMPH,Humidity,HourlyPrecipIn,Conditions,Clouds,dailyrainin,SoftwareType,DateUTC
2013-06-23 00:04:00,68.1,61.0,30.19,SE,127,0.0,1.0,78,0.00,,,0.00,weatherlink.com 1.10,2013-06-23 04:04:00,
2013-06-23 00:19:00,68.4,61.0,30.19,SE,127,0.0,0.0,77,0.00,,,0.00,weatherlink.com 1.10,2013-06-23 04:19:00,
2013-06-23 00:34:00,68.1,61.0,30.19,SE,127,0.0,0.0,78,0.00,,,0.00,weatherlink.com 1.10,2013-06-23 04:34:00,
2013-06-23 00:49:00,68.1,61.0,30.19,East,87,0.0,1.0,79,0.00,,,0.00,weatherlink.com 1.10,2013-06-23 04:49:00,
2013-06-23 01:04:00,67.9,61.0,30.19,East,83,0.0,2.0,79,0.00,,,0.00,weatherlink.com 1.10,2013-06-23 05:04:00,
2013-06-23 01:19:00,67.7,61.0,30.19,East,85,0.0,0.0,79,0.00,,,0.00,weatherlink.com 1.10,2013-06-23 05:19:00,
2013-06-23 01:34:00,67.9,61.0,30.18,SE,134,0.0,0.0,79,0.00,,,0.00,weatherlink.com 1.10,2013-06-23 05:34:00,
2013-06-23 01:49:00,67.9,61.0,30.19,SE,138,0.0,2.0,79,0.00,,,0.00,weatherlink.com 1.10,2013-06-23 05:49:00,
2013-06-23 02:04:00,67.7,61.0,30.19,SE,139,0.0,1.0,80,0.00,,,0.00,weatherlink.com 1.10,2013-06-23 06:04:00,
2013-06-23 02:19:00,67.3,61.0,30.18,SSE,149,0.0,1.0,81,0.00,,,0.00,weatherlink.com 1.10,2013-06-23 06:19:00,
2013-06-23 02:34:00,67.2,61.0,30.18,SE,142,0.0,1.0,81,0.00,,,0.00,weatherlink.com 1.10,2013-06-23 06:34:00,
2013-06-23 02:49:00,67.2,61.0,30.18,ESE,122,0.0,1.0,81,0.00,,,0.00,weatherlink.com 1.10,2013-06-23 06:49:00,
2013-06-23 03:04:00,66.9,61.0,30.17,ESE,122,0.0,0.0,81,0.00,,,0.00,weatherlink.com 1.10,2013-06-23 07:04:00,
2013-06-23 03:19:00,66.7,61.0,30.17,ESE,122,0.0,0.0,82,0.00,,,0.00,weatherlink.com 1.10,2013-06-23 07:19:00,
2013-06-23 03:34:00,66.6,61.0,30.16,ESE,122,0.0,0.0,82,0.00,,,0.00,weatherlink.com 1.10,2013-06-23 07:34:00,
2013-06-23 03:49:00,66.6,61.0,30.16,East,85,0.0,1.0,82,0.00,,,0.00,weatherlink.com 1.10,2013-06-23 07:49:00,
2013-06-23 04:04:00,66.4,61.0,30.16,East,86,0.0,0.0,83,0.00,,,0.00,weatherlink.com 1.10,2013-06-23 08:04:00,
2013-06-23 04:19:00,65.8,61.0,30.17,East,86,0.0,0.0,84,0.00,,,0.00,weatherlink.com 1.10,2013-06-23 08:19:00,
2013-06-23 04:34:00,65.4,61.0,30.17,East,86,0.0,0.0,85,0.00,,,0.00,weatherlink.com 1.10,2013-06-23 08:34:00,
2013-06-23 04:49:00,65.1,61.0,30.17,East,86,0.0,0.0,86,0.00,,,0.00,weatherlink.com 1.10,2013-06-23 08:49:00,
2013-06-23 05:04:00,64.9,61.0,30.17,East,86,0.0,0.0,86,0.00,,,0.00,weatherlink.com 1.10,2013-06-23 09:04:00,
2013-06-23 05:19:00,65.1,61.0,30.17,East,88,0.0,0.0,86,0.00,,,0.00,weatherlink.com 1.10,2013-06-23 09:19:00,
2013-06-23 05:34:00,65.1,61.0,30.17,East,88,0.0,0.0,87,0.00,,,0.00,weatherlink.com 1.10,2013-06-23 09:34:00,
2013-06-23 05:49:00,64.9,61.0,30.17,East,87,0.0,0.0,87,0.00,,,0.00,weatherlink.com 1.10,2013-06-23 09:49:00,
2013-06-23 06:04:00,64.5,61.0,30.18,East,87,0.0,0.0,88,0.00,,,0.00,weatherlink.com 1.10,2013-06-23 10:04:00,
2013-06-23 06:19:00,64.6,61.0,30.18,East,91,0.0,1.0,89,0.00,,,0.00,weatherlink.com 1.10,2013-06-23 10:19:00,
2013-06-23 06:34:00,64.7,62.0,30.18,East,91,0.0,0.0,89,0.00,,,0.00,weatherlink.com 1.10,2013-06-23 10:34:00,
2013-06-23 06:49:00,65.2,62.0,30.18,SE,128,0.0,0.0,89,0.00,,,0.00,weatherlink.com 1.10,2013-06-23 10:49:00,
2013-06-23 07:04:00,65.8,62.0,30.19,SE,129,0.0,0.0,88,0.00,,,0.00,weatherlink.com 1.10,2013-06-23 11:04:00,
2013-06-23 07:19:00,66.5,63.0,30.19,ESE,103,0.0,1.0,87,0.00,,,0.00,weatherlink.com 1.10,2013-06-23 11:19:00,
2013-06-23 07:34:00,67.1,63.0,30.20,ESE,103,0.0,0.0,87,0.00,,,0.00,weatherlink.com 1.10,2013-06-23 11:34:00,
2013-06-23 07:49:00,68.0,64.0,30.20,South,170,0.0,1.0,86,0.00,,,0.00,weatherlink.com 1.10,2013-06-23 11:49:00,
2013-06-23 08:04:00,68.7,64.0,30.20,South,169,0.0,2.0,85,0.00,,,0.00,weatherlink.com 1.10,2013-06-23 12:04:00,
2013-06-23 08:19:00,69.8,65.0,30.20,SSE,162,0.0,2.0,85,0.00,,,0.00,weatherlink.com 1.10,2013-06-23 12:19:00,
2013-06-23 08:35:00,71.2,66.0,30.20,North,349,0.0,2.0,83,0.00,,,0.00,weatherlink.com 1.10,2013-06-23 12:35:00,
2013-06-23 08:50:00,73.1,66.0,30.20,SE,128,0.0,1.0,79,0.00,,,0.00,weatherlink.com 1.10,2013-06-23 12:50:00,
2013-06-23 09:05:00,74.1,67.0,30.19,East,95,0.0,2.0,78,0.00,,,0.00,weatherlink.com 1.10,2013-06-23 13:05:00,
2013-06-23 09:20:00,75.9,67.0,30.19,ESE,121,0.0,2.0,73,0.00,,,0.00,weatherlink.com 1.10,2013-06-23 13:20:00,
2013-06-23 09:35:00,77.2,68.0,30.19,SE,133,0.0,1.0,72,0.00,,,0.00,weatherlink.com 1.10,2013-06-23 13:35:00,
2013-06-23 09:50:00,77.7,67.0,30.19,SSE,156,0.0,1.0,70,0.00,,,0.00,weatherlink.com 1.10,2013-06-23 13:50:00,
2013-06-23 10:05:00,77.5,67.0,30.18,SSE,159,0.0,2.0,71,0.00,,,0.00,weatherlink.com 1.10,2013-06-23 14:05:00,
2013-06-23 10:20:00,77.4,67.0,30.18,SE,144,1.0,1.0,71,0.00,,,0.00,weatherlink.com 1.10,2013-06-23 14:20:00,
2013-06-23 10:35:00,77.8,68.0,30.18,WNW,299,0.0,1.0,72,0.00,,,0.00,weatherlink.com 1.10,2013-06-23 14:35:00,
2013-06-23 10:50:00,78.6,69.0,30.18,SSE,148,1.0,1.0,72,0.00,,,0.00,weatherlink.com 1.10,2013-06-23 14:50:00,
2013-06-23 11:05:00,79.7,68.0,30.18,East,79,0.0,2.0,68,0.00,,,0.00,weatherlink.com 1.10,2013-06-23 15:05:00,
2013-06-23 11:20:00,79.8,69.0,30.17,East,83,0.0,2.0,69,0.00,,,0.00,weatherlink.com 1.10,2013-06-23 15:20:00,
2013-06-23 11:35:00,80.2,69.0,30.16,SE,132,0.0,3.0,69,0.00,,,0.00,weatherlink.com 1.10,2013-06-23 15:35:00,
2013-06-23 11:50:00,80.9,69.0,30.17,ESE,105,0.0,1.0,68,0.00,,,0.00,weatherlink.com 1.10,2013-06-23 15:50:00,
2013-06-23 12:05:00,81.7,69.0,30.16,ENE,71,1.0,3.0,66,0.00,,,0.00,weatherlink.com 1.10,2013-06-23 16:05:00,
2013-06-23 12:20:00,82.8,69.0,30.16,East,91,0.0,1.0,64,0.00,,,0.00,weatherlink.com 1.10,2013-06-23 16:20:00,
2013-06-23 12:50:00,84.2,67.0,30.15,SE,128,1.0,3.0,57,0.00,,,0.00,weatherlink.com 1.10,2013-06-23 16:50:00,
2013-06-23 13:05:00,84.2,68.0,30.14,East,99,1.0,2.0,59,0.00,,,0.00,weatherlink.com 1.10,2013-06-23 17:05:00,
2013-06-23 13:20:00,85.0,69.0,30.14,ESE,119,1.0,4.0,58,0.00,,,0.00,weatherlink.com 1.10,2013-06-23 17:20:00,
2013-06-23 13:35:00,85.3,67.0,30.14,NNE,19,2.0,6.0,55,0.00,,,0.00,weatherlink.com 1.10,2013-06-23 17:35:00,
2013-06-23 13:50:00,85.7,69.0,30.13,SSE,149,0.0,2.0,57,0.00,,,0.00,weatherlink.com 1.10,2013-06-23 17:50:00,
2013-06-23 14:05:00,86.2,69.0,30.12,East,89,0.0,3.0,57,0.00,,,0.00,weatherlink.com 1.10,2013-06-23 18:05:00,
2013-06-23 14:20:00,87.9,70.0,30.12,ESE,117,1.0,1.0,55,0.00,,,0.00,weatherlink.com 1.10,2013-06-23 18:20:00,
2013-06-23 14:36:00,88.2,70.0,30.12,NE,49,2.0,2.0,55,0.00,,,0.00,weatherlink.com 1.10,2013-06-23 18:36:00,
2013-06-23 14:51:00,88.8,69.0,30.11,SE,131,0.0,2.0,52,0.00,,,0.00,weatherlink.com 1.10,2013-06-23 18:51:00,
2013-06-23 15:06:00,89.1,70.0,30.10,East,94,1.0,3.0,53,0.00,,,0.00,weatherlink.com 1.10,2013-06-23 19:06:00,
2013-06-23 15:21:00,87.0,69.0,30.09,ENE,77,1.0,2.0,56,0.00,,,0.00,weatherlink.com 1.10,2013-06-23 19:21:00,
2013-06-23 15:36:00,85.9,69.0,30.09,ESE,108,0.0,2.0,58,0.00,,,0.00,weatherlink.com 1.10,2013-06-23 19:36:00,
2013-06-23 15:51:00,85.7,69.0,30.09,North,4,3.0,3.0,58,0.00,,,0.00,weatherlink.com 1.10,2013-06-23 19:51:00,
2013-06-23 16:06:00,86.4,68.0,30.09,North,351,0.0,3.0,55,0.00,,,0.00,weatherlink.com 1.10,2013-06-23 20:06:00,
2013-06-23 16:21:00,87.0,69.0,30.09,East,88,1.0,2.0,55,0.00,,,0.00,weatherlink.com 1.10,2013-06-23 20:21:00,
2013-06-23 16:36:00,85.2,69.0,30.08,ENE,70,1.0,2.0,59,0.00,,,0.00,weatherlink.com 1.10,2013-06-23 20:36:00,
2013-06-23 16:51:00,84.1,70.0,30.08,East,86,0.0,5.0,62,0.00,,,0.00,weatherlink.com 1.10,2013-06-23 20:51:00,
2013-06-23 17:06:00,84.4,70.0,30.08,ENE,70,0.0,4.0,62,0.00,,,0.00,weatherlink.com 1.10,2013-06-23 21:06:00,
2013-06-23 17:21:00,83.2,70.0,30.08,SE,127,0.0,4.0,64,0.00,,,0.00,weatherlink.com 1.10,2013-06-23 21:21:00,
2013-06-23 17:36:00,82.5,71.0,30.08,ENE,64,0.0,4.0,68,0.00,,,0.00,weatherlink.com 1.10,2013-06-23 21:36:00,
2013-06-23 17:51:00,80.0,70.0,30.08,East,84,1.0,5.0,72,0.00,,,0.00,weatherlink.com 1.10,2013-06-23 21:51:00,
2013-06-23 18:06:00,78.4,71.0,30.08,SE,128,0.0,1.0,77,0.00,,,0.00,weatherlink.com 1.10,2013-06-23 22:06:00,
2013-06-23 18:21:00,77.5,71.0,30.07,ENE,58,0.0,3.0,79,0.00,,,0.00,weatherlink.com 1.10,2013-06-23 22:21:00,
2013-06-23 18:36:00,76.4,70.0,30.08,SSE,165,0.0,3.0,81,0.00,,,0.00,weatherlink.com 1.10,2013-06-23 22:36:00,
2013-06-23 18:51:00,75.8,71.0,30.07,East,99,0.0,1.0,84,0.00,,,0.00,weatherlink.com 1.10,2013-06-23 22:51:00,
2013-06-23 19:06:00,75.3,70.0,30.07,East,99,0.0,1.0,84,0.00,,,0.00,weatherlink.com 1.10,2013-06-23 23:06:00,
2013-06-23 19:21:00,74.9,69.0,30.06,East,99,0.0,0.0,83,0.00,,,0.00,weatherlink.com 1.10,2013-06-23 23:21:00,
2013-06-23 19:36:00,75.0,69.0,30.06,ESE,121,0.0,0.0,82,0.00,,,0.00,weatherlink.com 1.10,2013-06-23 23:36:00,
2013-06-23 19:51:00,75.7,69.0,30.07,SE,129,0.0,1.0,80,0.00,,,0.00,weatherlink.com 1.10,2013-06-23 23:51:00,
2013-06-23 20:06:00,76.4,70.0,30.07,SE,129,0.0,1.0,80,0.00,,,0.00,weatherlink.com 1.10,2013-06-24 00:06:00,
2013-06-23 20:21:00,76.5,70.0,30.07,ENE,68,0.0,2.0,81,0.00,,,0.00,weatherlink.com 1.10,2013-06-24 00:21:00,
2013-06-23 20:36:00,76.0,71.0,30.07,ESE,122,0.0,1.0,83,0.00,,,0.00,weatherlink.com 1.10,2013-06-24 00:36:00,
2013-06-23 20:51:00,74.9,70.0,30.08,ESE,116,0.0,1.0,84,0.00,,,0.00,weatherlink.com 1.10,2013-06-24 00:51:00,
2013-06-23 21:06:00,74.0,69.0,30.08,ESE,105,0.0,2.0,85,0.00,,,0.00,weatherlink.com 1.10,2013-06-24 01:06:00,
2013-06-23 21:21:00,73.3,69.0,30.09,ESE,105,0.0,0.0,87,0.00,,,0.00,weatherlink.com 1.10,2013-06-24 01:21:00,
2013-06-23 21:36:00,72.9,69.0,30.09,ENE,77,0.0,1.0,88,0.00,,,0.00,weatherlink.com 1.10,2013-06-24 01:36:00,
2013-06-23 21:51:00,72.7,69.0,30.09,West,276,0.0,2.0,88,0.00,,,0.00,weatherlink.com 1.10,2013-06-24 01:51:00,
2013-06-23 22:06:00,72.5,69.0,30.09,West,274,0.0,0.0,89,0.00,,,0.00,weatherlink.com 1.10,2013-06-24 02:06:00,
2013-06-23 22:21:00,72.3,69.0,30.09,SSE,159,0.0,1.0,90,0.00,,,0.00,weatherlink.com 1.10,2013-06-24 02:21:00,
2013-06-23 22:36:00,72.0,69.0,30.09,SSE,159,0.0,0.0,91,0.00,,,0.00,weatherlink.com 1.10,2013-06-24 02:36:00,
2013-06-23 22:51:00,71.7,69.0,30.09,SSE,160,0.0,0.0,92,0.00,,,0.00,weatherlink.com 1.10,2013-06-24 02:51:00,
2013-06-23 23:06:00,71.4,69.0,30.09,SSE,160,0.0,0.0,93,0.00,,,0.00,weatherlink.com 1.10,2013-06-24 03:06:00,
2013-06-23 23:21:00,71.4,70.0,30.08,East,87,0.0,1.0,94,0.00,,,0.00,weatherlink.com 1.10,2013-06-24 03:21:00,
2013-06-23 23:36:00,71.5,70.0,30.08,East,87,0.0,1.0,94,0.00,,,0.00,weatherlink.com 1.10,2013-06-24 03:36:00,
2013-06-23 23:51:00,71.6,70.0,30.08,East,87,0.0,0.0,94,0.00,,,0.00,weatherlink.com 1.10,2013-06-24 03:51:00,